sensor_id;sensor_type;location;lat;lon;timestamp;pressure;altitude;pressure_sealevel;temperature;humidity
51083;BME280;37131;42.694;23.350;2023-01-28T00:01:47;94856.31;;;0.99;86.25
51083;BME280;37131;42.694;23.350;2023-01-28T00:04:12;94861.47;;;0.76;87.54
51083;BME280;37131;42.694;23.350;2023-01-28T00:06:38;94848.63;;;0.76;88.18
51083;BME280;37131;42.694;23.350;2023-01-28T00:09:04;94864.94;;;0.83;88.12
51083;BME280;37131;42.694;23.350;2023-01-28T00:11:29;94873.47;;;0.61;87.70
51083;BME280;37131;42.694;23.350;2023-01-28T00:13:55;94873.34;;;0.77;87.93
51083;BME280;37131;42.694;23.350;2023-01-28T00:16:20;94879.56;;;0.60;88.39
51083;BME280;37131;42.694;23.350;2023-01-28T00:18:51;94878.81;;;0.51;88.70
51083;BME280;37131;42.694;23.350;2023-01-28T00:21:16;94888.75;;;0.23;89.07
51083;BME280;37131;42.694;23.350;2023-01-28T00:23:47;94904.22;;;0.06;90.65
51083;BME280;37131;42.694;23.350;2023-01-28T00:26:14;94889.34;;;0.33;90.24
51083;BME280;37131;42.694;23.350;2023-01-28T00:28:40;94889.53;;;0.23;89.43
51083;BME280;37131;42.694;23.350;2023-01-28T00:31:28;94892.63;;;0.19;90.80
51083;BME280;37131;42.694;23.350;2023-01-28T00:33:53;94895.50;;;0.47;89.85
51083;BME280;37131;42.694;23.350;2023-01-28T00:36:21;94889.91;;;0.66;88.86
51083;BME280;37131;42.694;23.350;2023-01-28T00:38:51;94884.69;;;0.60;88.68
51083;BME280;37131;42.694;23.350;2023-01-28T00:41:18;94897.56;;;0.51;88.66
51083;BME280;37131;42.694;23.350;2023-01-28T00:43:46;94900.66;;;0.93;87.41
51083;BME280;37131;42.694;23.350;2023-01-28T00:46:13;94902.22;;;0.94;86.65
51083;BME280;37131;42.694;23.350;2023-01-28T00:48:39;94899.34;;;0.74;85.93
51083;BME280;37131;42.694;23.350;2023-01-28T00:51:07;94865.97;;;0.51;85.57
51083;BME280;37131;42.694;23.350;2023-01-28T00:53:32;94901.63;;;0.69;85.94
51083;BME280;37131;42.694;23.350;2023-01-28T00:56:03;94906.75;;;0.69;85.51
51083;BME280;37131;42.694;23.350;2023-01-28T00:58:30;94908.84;;;0.88;85.58
51083;BME280;37131;42.694;23.350;2023-01-28T01:00:55;94902.88;;;0.73;86.54
51083;BME280;37131;42.694;23.350;2023-01-28T01:03:21;94906.94;;;0.91;86.25
51083;BME280;37131;42.694;23.350;2023-01-28T01:05:46;94898.88;;;0.70;85.94
51083;BME280;37131;42.694;23.350;2023-01-28T01:08:12;94898.69;;;0.72;86.12
51083;BME280;37131;42.694;23.350;2023-01-28T01:10:38;94899.28;;;0.59;85.80
51083;BME280;37131;42.694;23.350;2023-01-28T01:13:04;94895.53;;;0.70;86.58
51083;BME280;37131;42.694;23.350;2023-01-28T01:15:31;94892.78;;;0.72;86.83
51083;BME280;37131;42.694;23.350;2023-01-28T01:17:57;94910.28;;;0.91;86.01
51083;BME280;37131;42.694;23.350;2023-01-28T01:20:27;94911.72;;;0.94;85.51
51083;BME280;37131;42.694;23.350;2023-01-28T01:22:55;94915.81;;;1.03;84.75
51083;BME280;37131;42.694;23.350;2023-01-28T01:25:20;94909.19;;;0.85;85.17
51083;BME280;37131;42.694;23.350;2023-01-28T01:27:48;94913.53;;;0.62;87.42
51083;BME280;37131;42.694;23.350;2023-01-28T01:30:14;94920.97;;;0.48;87.43
51083;BME280;37131;42.694;23.350;2023-01-28T01:32:40;94917.34;;;0.66;86.71
51083;BME280;37131;42.694;23.350;2023-01-28T01:35:06;94918.63;;;0.70;86.76
51083;BME280;37131;42.694;23.350;2023-01-28T01:37:35;94911.66;;;0.79;86.07
51083;BME280;37131;42.694;23.350;2023-01-28T01:40:01;94927.44;;;0.67;86.06
51083;BME280;37131;42.694;23.350;2023-01-28T01:42:30;94915.84;;;0.48;87.08
51083;BME280;37131;42.694;23.350;2023-01-28T01:48:04;94910.69;;;0.80;86.59
51083;BME280;37131;42.694;23.350;2023-01-28T01:53:09;94920.22;;;0.40;88.03
51083;BME280;37131;42.694;23.350;2023-01-28T01:55:38;94926.63;;;0.44;88.96
51083;BME280;37131;42.694;23.350;2023-01-28T01:58:08;94920.88;;;0.42;87.60
51083;BME280;37131;42.694;23.350;2023-01-28T02:00:34;94903.84;;;0.49;87.32
51083;BME280;37131;42.694;23.350;2023-01-28T02:03:00;94924.44;;;0.32;89.08
51083;BME280;37131;42.694;23.350;2023-01-28T02:05:25;94927.44;;;0.67;87.93
51083;BME280;37131;42.694;23.350;2023-01-28T02:07:53;94930.16;;;0.74;87.73
51083;BME280;37131;42.694;23.350;2023-01-28T02:10:21;94942.25;;;0.57;87.46
51083;BME280;37131;42.694;23.350;2023-01-28T02:12:53;94934.53;;;0.65;88.09
51083;BME280;37131;42.694;23.350;2023-01-28T02:15:23;94939.34;;;0.60;88.81
51083;BME280;37131;42.694;23.350;2023-01-28T02:17:49;94933.53;;;0.66;88.59
51083;BME280;37131;42.694;23.350;2023-01-28T02:20:22;94916.94;;;0.54;87.06
51083;BME280;37131;42.694;23.350;2023-01-28T02:31:26;94944.13;;;0.63;86.85
51083;BME280;37131;42.694;23.350;2023-01-28T02:34:05;94938.31;;;0.46;86.69
51083;BME280;37131;42.694;23.350;2023-01-28T02:39:14;94935.44;;;0.41;87.26
51083;BME280;37131;42.694;23.350;2023-01-28T02:41:47;94940.50;;;0.58;87.84
51083;BME280;37131;42.694;23.350;2023-01-28T02:44:14;94943.72;;;0.51;87.26
51083;BME280;37131;42.694;23.350;2023-01-28T02:46:39;94941.81;;;0.54;86.58
51083;BME280;37131;42.694;23.350;2023-01-28T02:49:40;94942.09;;;0.59;86.16
51083;BME280;37131;42.694;23.350;2023-01-28T02:52:29;94940.28;;;0.36;86.64
51083;BME280;37131;42.694;23.350;2023-01-28T03:03:27;94954.31;;;0.17;86.43
51083;BME280;37131;42.694;23.350;2023-01-28T03:05:58;94944.56;;;0.44;87.71
51083;BME280;37131;42.694;23.350;2023-01-28T03:08:45;94947.47;;;0.41;87.43
51083;BME280;37131;42.694;23.350;2023-01-28T03:11:33;94946.88;;;0.30;88.00
51083;BME280;37131;42.694;23.350;2023-01-28T03:14:19;94948.00;;;0.28;87.29
51083;BME280;37131;42.694;23.350;2023-01-28T03:17:04;94955.16;;;0.01;89.13
51083;BME280;37131;42.694;23.350;2023-01-28T03:19:51;94958.69;;;0.08;88.21
51083;BME280;37131;42.694;23.350;2023-01-28T03:22:37;94957.72;;;0.01;88.25
51083;BME280;37131;42.694;23.350;2023-01-28T03:25:25;94905.66;;;-0.47;88.71
51083;BME280;37131;42.694;23.350;2023-01-28T03:28:14;94959.78;;;0.14;88.48
51083;BME280;37131;42.694;23.350;2023-01-28T03:33:48;94956.81;;;0.33;86.35
51083;BME280;37131;42.694;23.350;2023-01-28T03:36:33;94911.31;;;-0.04;86.65
51083;BME280;37131;42.694;23.350;2023-01-28T03:39:15;94953.28;;;-0.13;87.87
51083;BME280;37131;42.694;23.350;2023-01-28T03:41:41;94970.06;;;0.06;87.61
51083;BME280;37131;42.694;23.350;2023-01-28T03:44:06;94968.44;;;0.13;87.91
51083;BME280;37131;42.694;23.350;2023-01-28T03:46:50;94953.53;;;0.16;87.87
51083;BME280;37131;42.694;23.350;2023-01-28T03:49:16;94970.94;;;0.29;86.91
51083;BME280;37131;42.694;23.350;2023-01-28T03:51:41;94970.44;;;-0.06;87.49
51083;BME280;37131;42.694;23.350;2023-01-28T03:54:07;94955.38;;;-0.09;88.17
51083;BME280;37131;42.694;23.350;2023-01-28T03:56:32;94978.56;;;-0.02;88.77
51083;BME280;37131;42.694;23.350;2023-01-28T03:59:02;94972.69;;;-0.19;88.53
51083;BME280;37131;42.694;23.350;2023-01-28T04:01:28;94921.31;;;-0.26;88.73
51083;BME280;37131;42.694;23.350;2023-01-28T04:03:53;94970.53;;;0.09;89.22
51083;BME280;37131;42.694;23.350;2023-01-28T04:06:19;94982.81;;;0.22;87.37
51083;BME280;37131;42.694;23.350;2023-01-28T04:08:44;94984.78;;;0.12;87.09
51083;BME280;37131;42.694;23.350;2023-01-28T04:11:12;94982.88;;;0.06;88.62
51083;BME280;37131;42.694;23.350;2023-01-28T04:13:41;94981.34;;;0.28;87.93
51083;BME280;37131;42.694;23.350;2023-01-28T04:16:07;94988.75;;;0.23;87.22
51083;BME280;37131;42.694;23.350;2023-01-28T04:18:33;94993.84;;;0.31;87.59
51083;BME280;37131;42.694;23.350;2023-01-28T04:20:58;94982.03;;;0.53;86.37
51083;BME280;37131;42.694;23.350;2023-01-28T04:23:24;94986.03;;;0.16;88.20
51083;BME280;37131;42.694;23.350;2023-01-28T04:25:50;94996.97;;;0.10;87.61
51083;BME280;37131;42.694;23.350;2023-01-28T04:28:15;94985.53;;;0.29;87.45
51083;BME280;37131;42.694;23.350;2023-01-28T04:30:41;94995.28;;;0.33;87.17
51083;BME280;37131;42.694;23.350;2023-01-28T04:33:06;94994.31;;;0.34;87.29
51083;BME280;37131;42.694;23.350;2023-01-28T04:35:32;95000.88;;;0.37;86.12
51083;BME280;37131;42.694;23.350;2023-01-28T04:37:57;94999.69;;;0.16;86.82
51083;BME280;37131;42.694;23.350;2023-01-28T04:40:22;95010.25;;;0.13;87.06
51083;BME280;37131;42.694;23.350;2023-01-28T04:42:55;95006.03;;;0.29;87.67
51083;BME280;37131;42.694;23.350;2023-01-28T04:45:21;95010.03;;;0.31;86.60
51083;BME280;37131;42.694;23.350;2023-01-28T04:47:47;95020.03;;;0.10;87.30
51083;BME280;37131;42.694;23.350;2023-01-28T04:50:12;95020.25;;;-0.16;88.20
51083;BME280;37131;42.694;23.350;2023-01-28T04:52:38;95013.50;;;-0.09;88.30
51083;BME280;37131;42.694;23.350;2023-01-28T04:55:03;95014.28;;;0.08;88.29
51083;BME280;37131;42.694;23.350;2023-01-28T04:57:29;95023.88;;;0.06;89.30
51083;BME280;37131;42.694;23.350;2023-01-28T04:59:54;95023.03;;;0.22;89.97
51083;BME280;37131;42.694;23.350;2023-01-28T05:02:20;95021.34;;;-0.03;89.14
51083;BME280;37131;42.694;23.350;2023-01-28T05:04:45;95023.25;;;0.04;88.58
51083;BME280;37131;42.694;23.350;2023-01-28T05:07:10;95030.97;;;-0.13;89.40
51083;BME280;37131;42.694;23.350;2023-01-28T05:09:36;95038.66;;;-0.13;89.97
51083;BME280;37131;42.694;23.350;2023-01-28T05:12:02;95034.75;;;0.16;89.00
51083;BME280;37131;42.694;23.350;2023-01-28T05:14:27;95038.75;;;0.10;89.94
51083;BME280;37131;42.694;23.350;2023-01-28T05:16:53;95040.88;;;0.15;88.61
51083;BME280;37131;42.694;23.350;2023-01-28T05:19:18;95030.81;;;-0.20;89.75
51083;BME280;37131;42.694;23.350;2023-01-28T05:21:43;95039.63;;;-0.06;90.16
51083;BME280;37131;42.694;23.350;2023-01-28T05:24:09;95047.16;;;-0.12;90.49
51083;BME280;37131;42.694;23.350;2023-01-28T05:26:34;95039.09;;;0.15;89.29
51083;BME280;37131;42.694;23.350;2023-01-28T05:29:01;94993.03;;;-0.34;88.87
51083;BME280;37131;42.694;23.350;2023-01-28T05:31:27;95050.03;;;-0.15;88.49
51083;BME280;37131;42.694;23.350;2023-01-28T05:33:53;95052.75;;;-0.09;88.63
51083;BME280;37131;42.694;23.350;2023-01-28T05:36:18;95052.28;;;-0.04;88.92
51083;BME280;37131;42.694;23.350;2023-01-28T05:38:44;95049.34;;;0.07;88.09
51083;BME280;37131;42.694;23.350;2023-01-28T05:41:09;95058.00;;;0.14;87.96
51083;BME280;37131;42.694;23.350;2023-01-28T05:43:34;95052.69;;;0.24;88.15
51083;BME280;37131;42.694;23.350;2023-01-28T05:46:00;95058.31;;;0.20;86.64
51083;BME280;37131;42.694;23.350;2023-01-28T05:48:25;95059.59;;;0.07;87.14
51083;BME280;37131;42.694;23.350;2023-01-28T05:50:51;95059.59;;;0.07;88.53
51083;BME280;37131;42.694;23.350;2023-01-28T05:53:16;95063.78;;;0.08;88.50
51083;BME280;37131;42.694;23.350;2023-01-28T05:55:41;95065.72;;;-0.02;87.53
51083;BME280;37131;42.694;23.350;2023-01-28T05:58:07;95062.78;;;0.26;87.28
51083;BME280;37131;42.694;23.350;2023-01-28T06:00:32;95066.91;;;0.35;86.75
51083;BME280;37131;42.694;23.350;2023-01-28T06:02:58;95070.63;;;0.24;87.44
51083;BME280;37131;42.694;23.350;2023-01-28T06:05:24;95078.03;;;0.11;87.89
51083;BME280;37131;42.694;23.350;2023-01-28T06:07:49;95085.69;;;0.27;87.13
51083;BME280;37131;42.694;23.350;2023-01-28T06:10:15;95082.97;;;0.29;85.84
51083;BME280;37131;42.694;23.350;2023-01-28T06:12:43;95090.56;;;-0.03;85.89
51083;BME280;37131;42.694;23.350;2023-01-28T06:15:09;95096.31;;;0.08;86.63
51083;BME280;37131;42.694;23.350;2023-01-28T06:17:35;95096.94;;;0.18;86.92
51083;BME280;37131;42.694;23.350;2023-01-28T06:20:00;95095.16;;;0.19;86.78
51083;BME280;37131;42.694;23.350;2023-01-28T06:22:26;95095.50;;;0.07;86.88
51083;BME280;37131;42.694;23.350;2023-01-28T06:24:51;95107.22;;;0.02;87.63
51083;BME280;37131;42.694;23.350;2023-01-28T06:27:17;95115.69;;;0.27;86.57
51083;BME280;37131;42.694;23.350;2023-01-28T06:29:42;95108.97;;;0.01;86.64
51083;BME280;37131;42.694;23.350;2023-01-28T06:32:07;95122.25;;;0.21;86.79
51083;BME280;37131;42.694;23.350;2023-01-28T06:34:33;95091.22;;;-0.33;87.87
51083;BME280;37131;42.694;23.350;2023-01-28T06:36:58;95117.00;;;-0.10;88.18
51083;BME280;37131;42.694;23.350;2023-01-28T06:39:23;95125.16;;;0.02;86.65
51083;BME280;37131;42.694;23.350;2023-01-28T06:41:51;95114.88;;;0.10;86.51
51083;BME280;37131;42.694;23.350;2023-01-28T06:44:16;95135.84;;;0.38;86.22
51083;BME280;37131;42.694;23.350;2023-01-28T06:46:42;95127.19;;;0.31;85.98
51083;BME280;37131;42.694;23.350;2023-01-28T06:49:07;95139.88;;;0.16;86.28
51083;BME280;37131;42.694;23.350;2023-01-28T06:51:32;95145.47;;;0.28;86.02
51083;BME280;37131;42.694;23.350;2023-01-28T06:53:58;95071.16;;;-0.13;85.63
51083;BME280;37131;42.694;23.350;2023-01-28T06:56:23;95148.50;;;0.40;85.95
51083;BME280;37131;42.694;23.350;2023-01-28T06:58:49;95147.53;;;0.32;85.41
51083;BME280;37131;42.694;23.350;2023-01-28T07:01:14;95152.22;;;0.29;85.49
51083;BME280;37131;42.694;23.350;2023-01-28T07:03:40;95147.56;;;0.16;86.85
51083;BME280;37131;42.694;23.350;2023-01-28T07:06:05;95159.75;;;0.06;86.50
51083;BME280;37131;42.694;23.350;2023-01-28T07:08:31;95158.66;;;0.00;86.41
51083;BME280;37131;42.694;23.350;2023-01-28T07:10:58;95124.00;;;-0.37;86.96
51083;BME280;37131;42.694;23.350;2023-01-28T07:13:23;95166.97;;;-0.14;87.91
51083;BME280;37131;42.694;23.350;2023-01-28T07:15:49;95168.72;;;0.10;87.55
51083;BME280;37131;42.694;23.350;2023-01-28T07:18:14;95172.09;;;0.19;87.38
51083;BME280;37131;42.694;23.350;2023-01-28T07:20:40;95177.22;;;0.27;86.33
51083;BME280;37131;42.694;23.350;2023-01-28T07:23:06;95175.75;;;0.41;85.85
51083;BME280;37131;42.694;23.350;2023-01-28T07:25:31;95179.75;;;0.51;85.49
51083;BME280;37131;42.694;23.350;2023-01-28T07:27:56;95188.38;;;0.59;84.08
51083;BME280;37131;42.694;23.350;2023-01-28T07:30:22;95142.59;;;0.23;85.49
51083;BME280;37131;42.694;23.350;2023-01-28T07:32:55;95191.94;;;0.58;83.73
51083;BME280;37131;42.694;23.350;2023-01-28T07:35:21;95187.28;;;0.61;83.42
51083;BME280;37131;42.694;23.350;2023-01-28T07:37:57;95188.81;;;0.87;83.36
51083;BME280;37131;42.694;23.350;2023-01-28T07:40:23;95190.72;;;0.93;82.38
51083;BME280;37131;42.694;23.350;2023-01-28T07:42:49;95190.13;;;0.66;82.41
51083;BME280;37131;42.694;23.350;2023-01-28T07:45:15;95198.19;;;0.47;84.40
51083;BME280;37131;42.694;23.350;2023-01-28T07:47:41;95199.81;;;0.31;84.71
51083;BME280;37131;42.694;23.350;2023-01-28T07:50:08;95193.38;;;0.44;85.28
51083;BME280;37131;42.694;23.350;2023-01-28T07:52:33;95198.31;;;0.62;84.67
51083;BME280;37131;42.694;23.350;2023-01-28T07:55:05;95191.47;;;0.21;86.78
51083;BME280;37131;42.694;23.350;2023-01-28T07:57:31;95207.34;;;0.33;85.76
51083;BME280;37131;42.694;23.350;2023-01-28T07:59:56;95214.38;;;0.64;83.85
51083;BME280;37131;42.694;23.350;2023-01-28T08:02:22;95202.50;;;0.55;83.72
51083;BME280;37131;42.694;23.350;2023-01-28T08:04:47;95216.31;;;0.45;83.18
51083;BME280;37131;42.694;23.350;2023-01-28T08:07:12;95211.81;;;0.64;82.65
51083;BME280;37131;42.694;23.350;2023-01-28T08:09:38;95215.28;;;0.79;82.44
51083;BME280;37131;42.694;23.350;2023-01-28T08:12:03;95210.06;;;0.40;84.03
51083;BME280;37131;42.694;23.350;2023-01-28T08:14:30;95221.94;;;0.49;83.96
51083;BME280;37131;42.694;23.350;2023-01-28T08:16:56;95220.63;;;0.69;83.83
51083;BME280;37131;42.694;23.350;2023-01-28T08:19:21;95219.44;;;0.88;82.55
51083;BME280;37131;42.694;23.350;2023-01-28T08:21:47;95227.00;;;0.82;83.11
51083;BME280;37131;42.694;23.350;2023-01-28T08:24:12;95230.22;;;0.76;83.08
51083;BME280;37131;42.694;23.350;2023-01-28T08:26:38;95219.81;;;0.77;83.48
51083;BME280;37131;42.694;23.350;2023-01-28T08:29:03;95187.91;;;0.63;81.97
51083;BME280;37131;42.694;23.350;2023-01-28T08:31:30;95238.63;;;1.26;80.39
51083;BME280;37131;42.694;23.350;2023-01-28T08:33:55;95224.88;;;1.02;80.92
51083;BME280;37131;42.694;23.350;2023-01-28T08:36:20;95221.72;;;1.31;80.74
51083;BME280;37131;42.694;23.350;2023-01-28T08:38:46;95223.16;;;1.34;80.09
51083;BME280;37131;42.694;23.350;2023-01-28T08:41:15;95229.47;;;1.23;80.30
51083;BME280;37131;42.694;23.350;2023-01-28T08:43:40;95225.69;;;1.42;80.30
51083;BME280;37131;42.694;23.350;2023-01-28T08:46:06;95232.13;;;1.38;79.23
51083;BME280;37131;42.694;23.350;2023-01-28T08:48:31;95216.53;;;1.00;79.71
51083;BME280;37131;42.694;23.350;2023-01-28T08:50:57;95225.28;;;1.22;79.36
51083;BME280;37131;42.694;23.350;2023-01-28T08:53:23;95228.88;;;1.52;79.62
51083;BME280;37131;42.694;23.350;2023-01-28T08:55:48;95217.50;;;1.47;78.49
51083;BME280;37131;42.694;23.350;2023-01-28T08:58:16;95233.34;;;1.58;78.38
51083;BME280;37131;42.694;23.350;2023-01-28T09:00:43;95239.34;;;1.43;78.80
51083;BME280;37131;42.694;23.350;2023-01-28T09:03:09;95196.69;;;1.56;78.19
51083;BME280;37131;42.694;23.350;2023-01-28T09:05:35;95224.47;;;1.92;78.30
51083;BME280;37131;42.694;23.350;2023-01-28T09:08:09;95228.06;;;1.83;78.08
51083;BME280;37131;42.694;23.350;2023-01-28T09:10:36;95234.34;;;1.49;79.38
51083;BME280;37131;42.694;23.350;2023-01-28T09:13:09;95233.63;;;1.95;77.69
51083;BME280;37131;42.694;23.350;2023-01-28T09:15:35;95241.56;;;1.77;76.64
51083;BME280;37131;42.694;23.350;2023-01-28T09:18:02;95233.63;;;1.64;78.32
51083;BME280;37131;42.694;23.350;2023-01-28T09:20:27;95240.13;;;1.43;79.48
51083;BME280;37131;42.694;23.350;2023-01-28T09:22:53;95236.41;;;1.54;78.50
51083;BME280;37131;42.694;23.350;2023-01-28T09:25:18;95238.97;;;1.54;78.33
51083;BME280;37131;42.694;23.350;2023-01-28T09:27:43;95236.06;;;1.57;78.17
51083;BME280;37131;42.694;23.350;2023-01-28T09:30:09;95236.53;;;1.61;79.21
51083;BME280;37131;42.694;23.350;2023-01-28T09:32:35;95227.34;;;1.35;79.33
51083;BME280;37131;42.694;23.350;2023-01-28T09:35:01;95236.56;;;1.52;80.72
51083;BME280;37131;42.694;23.350;2023-01-28T09:37:27;95243.94;;;1.55;79.28
51083;BME280;37131;42.694;23.350;2023-01-28T09:39:52;95236.03;;;1.26;80.07
51083;BME280;37131;42.694;23.350;2023-01-28T09:44:58;95239.63;;;1.08;80.36
51083;BME280;37131;42.694;23.350;2023-01-28T09:47:39;95240.38;;;1.25;81.28
51083;BME280;37131;42.694;23.350;2023-01-28T09:50:39;95245.31;;;1.35;81.08
51083;BME280;37131;42.694;23.350;2023-01-28T09:53:10;95239.25;;;1.19;81.32
51083;BME280;37131;42.694;23.350;2023-01-28T09:55:40;95244.75;;;1.08;81.49
51083;BME280;37131;42.694;23.350;2023-01-28T09:58:12;95242.19;;;1.00;81.67
51083;BME280;37131;42.694;23.350;2023-01-28T10:11:55;95238.19;;;1.05;83.01
51083;BME280;37131;42.694;23.350;2023-01-28T10:17:15;95226.56;;;1.18;82.23
51083;BME280;37131;42.694;23.350;2023-01-28T10:20:07;95229.63;;;1.21;81.76
51083;BME280;37131;42.694;23.350;2023-01-28T10:22:49;95229.41;;;0.83;83.68
51083;BME280;37131;42.694;23.350;2023-01-28T10:25:23;95225.78;;;1.26;82.84
51083;BME280;37131;42.694;23.350;2023-01-28T10:27:50;95233.34;;;1.11;82.61
51083;BME280;37131;42.694;23.350;2023-01-28T10:30:29;95218.50;;;0.81;84.89
51083;BME280;37131;42.694;23.350;2023-01-28T10:33:00;95227.75;;;1.07;83.86
51083;BME280;37131;42.694;23.350;2023-01-28T10:35:30;95218.69;;;1.28;84.09
51083;BME280;37131;42.694;23.350;2023-01-28T10:38:01;95207.97;;;1.24;82.38
51083;BME280;37131;42.694;23.350;2023-01-28T10:40:30;95232.47;;;1.35;82.43
51083;BME280;37131;42.694;23.350;2023-01-28T10:42:56;95228.72;;;1.46;82.17
51083;BME280;37131;42.694;23.350;2023-01-28T10:45:54;95229.75;;;1.68;81.49
51083;BME280;37131;42.694;23.350;2023-01-28T10:48:25;95219.13;;;1.71;80.43
51083;BME280;37131;42.694;23.350;2023-01-28T10:50:56;95221.31;;;1.51;81.24
51083;BME280;37131;42.694;23.350;2023-01-28T10:53:33;95224.94;;;1.65;81.96
51083;BME280;37131;42.694;23.350;2023-01-28T10:56:01;95227.75;;;1.78;80.95
51083;BME280;37131;42.694;23.350;2023-01-28T10:58:28;95213.97;;;2.02;79.63
51083;BME280;37131;42.694;23.350;2023-01-28T11:01:04;95211.84;;;2.06;79.12
51083;BME280;37131;42.694;23.350;2023-01-28T11:03:31;95212.72;;;1.98;80.90
51083;BME280;37131;42.694;23.350;2023-01-28T11:05:58;95219.38;;;2.31;79.53
51083;BME280;37131;42.694;23.350;2023-01-28T11:08:26;95220.31;;;2.38;77.63
51083;BME280;37131;42.694;23.350;2023-01-28T11:10:53;95221.06;;;1.69;78.74
51083;BME280;37131;42.694;23.350;2023-01-28T11:13:29;95226.16;;;1.46;79.40
51083;BME280;37131;42.694;23.350;2023-01-28T11:16:02;95224.19;;;1.56;78.66
51083;BME280;37131;42.694;23.350;2023-01-28T11:18:38;95220.75;;;1.64;80.71
51083;BME280;37131;42.694;23.350;2023-01-28T11:21:06;95224.66;;;1.60;78.78
51083;BME280;37131;42.694;23.350;2023-01-28T11:26:31;95217.94;;;1.50;79.46
51083;BME280;37131;42.694;23.350;2023-01-28T11:28:58;95218.94;;;1.49;79.97
51083;BME280;37131;42.694;23.350;2023-01-28T11:31:25;95213.91;;;1.56;80.92
51083;BME280;37131;42.694;23.350;2023-01-28T11:33:54;95213.94;;;1.79;80.42
51083;BME280;37131;42.694;23.350;2023-01-28T11:36:23;95208.75;;;2.10;78.52
51083;BME280;37131;42.694;23.350;2023-01-28T11:38:56;95207.88;;;2.18;77.53
51083;BME280;37131;42.694;23.350;2023-01-28T11:41:34;95200.59;;;2.07;76.70
51083;BME280;37131;42.694;23.350;2023-01-28T11:44:19;95158.44;;;2.31;76.29
51083;BME280;37131;42.694;23.350;2023-01-28T12:03:48;95199.44;;;2.09;77.27
51083;BME280;37131;42.694;23.350;2023-01-28T12:11:49;95198.56;;;2.55;74.13
51083;BME280;37131;42.694;23.350;2023-01-28T12:17:45;95209.22;;;2.52;74.85
51083;BME280;37131;42.694;23.350;2023-01-28T12:21:05;95205.63;;;2.61;74.79
51083;BME280;37131;42.694;23.350;2023-01-28T12:23:52;95210.63;;;2.40;73.20
51083;BME280;37131;42.694;23.350;2023-01-28T12:27:03;95204.63;;;2.62;73.62
51083;BME280;37131;42.694;23.350;2023-01-28T12:29:40;95208.78;;;2.49;73.76
51083;BME280;37131;42.694;23.350;2023-01-28T12:40:36;95215.19;;;2.53;73.71
51083;BME280;37131;42.694;23.350;2023-01-28T12:43:19;95212.69;;;2.21;73.91
51083;BME280;37131;42.694;23.350;2023-01-28T12:45:59;95215.22;;;2.06;76.54
51083;BME280;37131;42.694;23.350;2023-01-28T12:48:33;95187.69;;;1.92;74.97
51083;BME280;37131;42.694;23.350;2023-01-28T12:51:09;95214.38;;;2.14;75.65
51083;BME280;37131;42.694;23.350;2023-01-28T12:53:52;95222.94;;;2.30;75.76
51083;BME280;37131;42.694;23.350;2023-01-28T12:56:30;95212.97;;;2.50;75.46
51083;BME280;37131;42.694;23.350;2023-01-28T12:59:11;95235.84;;;2.44;76.38
51083;BME280;37131;42.694;23.350;2023-01-28T13:04:44;95230.34;;;2.48;74.64
51083;BME280;37131;42.694;23.350;2023-01-28T13:07:25;95234.09;;;2.22;74.69
51083;BME280;37131;42.694;23.350;2023-01-28T13:09:59;95149.38;;;1.51;76.23
51083;BME280;37131;42.694;23.350;2023-01-28T13:12:28;95245.06;;;1.84;77.27
51083;BME280;37131;42.694;23.350;2023-01-28T13:14:55;95240.53;;;2.18;76.98
51083;BME280;37131;42.694;23.350;2023-01-28T13:17:26;95247.97;;;2.36;75.79
51083;BME280;37131;42.694;23.350;2023-01-28T13:19:52;95246.06;;;2.30;75.55
51083;BME280;37131;42.694;23.350;2023-01-28T13:22:34;95245.44;;;2.51;74.21
51083;BME280;37131;42.694;23.350;2023-01-28T13:25:23;95247.22;;;2.50;74.23
51083;BME280;37131;42.694;23.350;2023-01-28T13:28:03;95249.28;;;2.32;73.48
51083;BME280;37131;42.694;23.350;2023-01-28T13:30:30;95252.00;;;2.53;73.24
51083;BME280;37131;42.694;23.350;2023-01-28T13:33:01;95248.38;;;2.01;74.04
51083;BME280;37131;42.694;23.350;2023-01-28T13:35:34;95255.41;;;2.07;74.92
51083;BME280;37131;42.694;23.350;2023-01-28T13:38:16;95259.97;;;2.20;74.36
51083;BME280;37131;42.694;23.350;2023-01-28T13:40:42;95261.72;;;2.20;74.39
51083;BME280;37131;42.694;23.350;2023-01-28T13:46:02;95261.97;;;2.10;73.82
51083;BME280;37131;42.694;23.350;2023-01-28T13:51:01;95270.03;;;2.07;74.13
51083;BME280;37131;42.694;23.350;2023-01-28T13:53:44;95269.97;;;2.15;74.56
51083;BME280;37131;42.694;23.350;2023-01-28T13:56:25;95278.50;;;1.84;76.49
51083;BME280;37131;42.694;23.350;2023-01-28T13:59:04;95286.78;;;2.03;74.71
51083;BME280;37131;42.694;23.350;2023-01-28T14:15:18;95299.28;;;1.74;76.63
51083;BME280;37131;42.694;23.350;2023-01-28T14:17:50;95298.59;;;1.41;77.89
51083;BME280;37131;42.694;23.350;2023-01-28T14:20:43;95304.69;;;1.48;78.42
51083;BME280;37131;42.694;23.350;2023-01-28T14:23:20;95311.28;;;1.82;76.55
51083;BME280;37131;42.694;23.350;2023-01-28T14:28:38;95313.00;;;1.50;77.80
51083;BME280;37131;42.694;23.350;2023-01-28T14:31:17;95326.06;;;1.32;78.01
51083;BME280;37131;42.694;23.350;2023-01-28T14:33:45;95322.00;;;1.54;78.30
51083;BME280;37131;42.694;23.350;2023-01-28T14:36:11;95321.34;;;1.61;77.72
51083;BME280;37131;42.694;23.350;2023-01-28T14:38:42;95330.84;;;1.52;78.03
51083;BME280;37131;42.694;23.350;2023-01-28T14:41:10;95320.16;;;1.32;78.09
51083;BME280;37131;42.694;23.350;2023-01-28T14:43:43;95332.88;;;1.17;79.17
51083;BME280;37131;42.694;23.350;2023-01-28T14:46:16;95326.91;;;1.25;80.06
51083;BME280;37131;42.694;23.350;2023-01-28T14:51:49;95339.59;;;1.01;79.68
51083;BME280;37131;42.694;23.350;2023-01-28T14:57:20;95346.16;;;1.29;79.59
51083;BME280;37131;42.694;23.350;2023-01-28T14:59:55;95352.28;;;1.03;80.52
51083;BME280;37131;42.694;23.350;2023-01-28T15:02:28;95351.00;;;1.15;79.64
51083;BME280;37131;42.694;23.350;2023-01-28T15:04:54;95349.84;;;1.26;79.70
51083;BME280;37131;42.694;23.350;2023-01-28T15:07:30;95349.97;;;1.33;79.43